sensor_id;sensor_type;location;lat;lon;timestamp;pressure;altitude;pressure_sealevel;temperature
24586;BMP280;12743;52.262;6.172;2022-07-23T00:00:43;101649.34;;;17.03
24586;BMP280;12743;52.262;6.172;2022-07-23T00:03:09;101650.09;;;17.03
24586;BMP280;12743;52.262;6.172;2022-07-23T00:05:35;101637.31;;;16.90
24586;BMP280;12743;52.262;6.172;2022-07-23T00:08:00;101642.78;;;16.81
24586;BMP280;12743;52.262;6.172;2022-07-23T00:10:25;101642.97;;;16.73
24586;BMP280;12743;52.262;6.172;2022-07-23T00:12:51;101649.00;;;16.89
24586;BMP280;12743;52.262;6.172;2022-07-23T00:15:16;101631.53;;;16.53
24586;BMP280;12743;52.262;6.172;2022-07-23T00:17:41;101640.31;;;16.57
24586;BMP280;12743;52.262;6.172;2022-07-23T00:20:07;101646.03;;;16.75
24586;BMP280;12743;52.262;6.172;2022-07-23T00:22:33;101648.09;;;16.81
24586;BMP280;12743;52.262;6.172;2022-07-23T00:24:58;101640.31;;;16.73
24586;BMP280;12743;52.262;6.172;2022-07-23T00:27:24;101639.59;;;16.91
24586;BMP280;12743;52.262;6.172;2022-07-23T00:29:49;101636.84;;;16.88
24586;BMP280;12743;52.262;6.172;2022-07-23T00:32:15;101644.56;;;16.77
24586;BMP280;12743;52.262;6.172;2022-07-23T00:34:41;101645.72;;;16.76
24586;BMP280;12743;52.262;6.172;2022-07-23T00:37:06;101635.63;;;16.66
24586;BMP280;12743;52.262;6.172;2022-07-23T00:39:31;101635.78;;;16.73
24586;BMP280;12743;52.262;6.172;2022-07-23T00:41:57;101631.28;;;16.77
24586;BMP280;12743;52.262;6.172;2022-07-23T00:44:24;101632.25;;;16.85
24586;BMP280;12743;52.262;6.172;2022-07-23T00:46:56;101631.06;;;16.67
24586;BMP280;12743;52.262;6.172;2022-07-23T00:49:27;101639.03;;;16.67
24586;BMP280;12743;52.262;6.172;2022-07-23T00:51:54;101627.81;;;16.58
24586;BMP280;12743;52.262;6.172;2022-07-23T00:54:23;101637.13;;;16.67
24586;BMP280;12743;52.262;6.172;2022-07-23T00:56:49;101630.06;;;16.56
24586;BMP280;12743;52.262;6.172;2022-07-23T00:59:14;101635.72;;;16.70
24586;BMP280;12743;52.262;6.172;2022-07-23T01:01:40;101630.78;;;16.72
24586;BMP280;12743;52.262;6.172;2022-07-23T01:04:06;101633.31;;;16.65
24586;BMP280;12743;52.262;6.172;2022-07-23T01:06:37;101628.34;;;16.48
24586;BMP280;12743;52.262;6.172;2022-07-23T01:09:06;101630.09;;;16.40
24586;BMP280;12743;52.262;6.172;2022-07-23T01:11:34;101626.78;;;16.31
24586;BMP280;12743;52.262;6.172;2022-07-23T01:14:16;101618.25;;;16.38
24586;BMP280;12743;52.262;6.172;2022-07-23T01:16:43;101619.97;;;16.46
24586;BMP280;12743;52.262;6.172;2022-07-23T01:19:09;101618.09;;;16.31
24586;BMP280;12743;52.262;6.172;2022-07-23T01:21:42;101616.03;;;16.24
24586;BMP280;12743;52.262;6.172;2022-07-23T01:24:09;101613.81;;;16.26
24586;BMP280;12743;52.262;6.172;2022-07-23T01:26:37;101598.41;;;16.16
24586;BMP280;12743;52.262;6.172;2022-07-23T01:29:03;101610.38;;;16.26
24586;BMP280;12743;52.262;6.172;2022-07-23T01:31:30;101605.50;;;16.28
24586;BMP280;12743;52.262;6.172;2022-07-23T01:33:55;101608.41;;;16.38
24586;BMP280;12743;52.262;6.172;2022-07-23T01:36:21;101610.38;;;16.26
24586;BMP280;12743;52.262;6.172;2022-07-23T01:38:47;101584.13;;;16.21
24586;BMP280;12743;52.262;6.172;2022-07-23T01:41:12;101609.28;;;16.27
24586;BMP280;12743;52.262;6.172;2022-07-23T01:43:38;101598.50;;;16.04
24586;BMP280;12743;52.262;6.172;2022-07-23T01:46:04;101611.00;;;16.03
24586;BMP280;12743;52.262;6.172;2022-07-23T01:48:36;101613.19;;;16.01
24586;BMP280;12743;52.262;6.172;2022-07-23T01:51:20;101605.78;;;16.07
24586;BMP280;12743;52.262;6.172;2022-07-23T01:53:55;101611.00;;;16.03
24586;BMP280;12743;52.262;6.172;2022-07-23T01:56:21;101584.09;;;15.89
24586;BMP280;12743;52.262;6.172;2022-07-23T01:58:48;101598.91;;;15.90
24586;BMP280;12743;52.262;6.172;2022-07-23T02:01:14;101588.03;;;15.80
24586;BMP280;12743;52.262;6.172;2022-07-23T02:03:40;101599.47;;;15.84
24586;BMP280;12743;52.262;6.172;2022-07-23T02:06:05;101609.50;;;15.90
24586;BMP280;12743;52.262;6.172;2022-07-23T02:08:31;101606.22;;;15.81
24586;BMP280;12743;52.262;6.172;2022-07-23T02:10:56;101602.25;;;15.87
24586;BMP280;12743;52.262;6.172;2022-07-23T02:13:21;101594.34;;;15.75
24586;BMP280;12743;52.262;6.172;2022-07-23T02:15:47;101594.19;;;15.84
24586;BMP280;12743;52.262;6.172;2022-07-23T02:18:12;101589.31;;;15.86
24586;BMP280;12743;52.262;6.172;2022-07-23T02:20:38;101587.75;;;15.85
24586;BMP280;12743;52.262;6.172;2022-07-23T02:23:04;101588.03;;;15.80
24586;BMP280;12743;52.262;6.172;2022-07-23T02:25:29;101539.22;;;15.38
24586;BMP280;12743;52.262;6.172;2022-07-23T02:28:00;101593.13;;;15.73
24586;BMP280;12743;52.262;6.172;2022-07-23T02:30:25;101599.19;;;15.73
24586;BMP280;12743;52.262;6.172;2022-07-23T02:32:51;101594.38;;;15.63
24586;BMP280;12743;52.262;6.172;2022-07-23T02:35:16;101589.09;;;15.63
24586;BMP280;12743;52.262;6.172;2022-07-23T02:37:41;101589.09;;;15.63
24586;BMP280;12743;52.262;6.172;2022-07-23T02:40:07;101578.72;;;15.58
24586;BMP280;12743;52.262;6.172;2022-07-23T02:42:36;101586.63;;;15.55
24586;BMP280;12743;52.262;6.172;2022-07-23T02:45:03;101588.22;;;15.59
24586;BMP280;12743;52.262;6.172;2022-07-23T02:47:29;101578.13;;;15.49
24586;BMP280;12743;52.262;6.172;2022-07-23T02:49:56;101586.25;;;15.56
24586;BMP280;12743;52.262;6.172;2022-07-23T02:52:21;101591.78;;;15.51
24586;BMP280;12743;52.262;6.172;2022-07-23T02:54:47;101585.16;;;15.45
24586;BMP280;12743;52.262;6.172;2022-07-23T02:57:15;101590.84;;;15.44
24586;BMP280;12743;52.262;6.172;2022-07-23T02:59:41;101585.66;;;15.35
24586;BMP280;12743;52.262;6.172;2022-07-23T03:02:07;101576.88;;;15.31
24586;BMP280;12743;52.262;6.172;2022-07-23T03:04:32;101598.25;;;15.38
24586;BMP280;12743;52.262;6.172;2022-07-23T03:06:57;101598.63;;;15.52
24586;BMP280;12743;52.262;6.172;2022-07-23T03:09:24;101589.06;;;15.36
24586;BMP280;12743;52.262;6.172;2022-07-23T03:11:51;101593.53;;;15.32
24586;BMP280;12743;52.262;6.172;2022-07-23T03:14:18;101588.13;;;15.28
24586;BMP280;12743;52.262;6.172;2022-07-23T03:16:43;101584.81;;;15.19
24586;BMP280;12743;52.262;6.172;2022-07-23T03:19:09;101594.16;;;15.28
24586;BMP280;12743;52.262;6.172;2022-07-23T03:21:34;101585.69;;;15.23
24586;BMP280;12743;52.262;6.172;2022-07-23T03:24:04;101593.44;;;15.28
24586;BMP280;12743;52.262;6.172;2022-07-23T03:26:29;101597.38;;;15.22
24586;BMP280;12743;52.262;6.172;2022-07-23T03:28:55;101608.41;;;15.24
24586;BMP280;12743;52.262;6.172;2022-07-23T03:31:20;101599.59;;;15.20
24586;BMP280;12743;52.262;6.172;2022-07-23T03:33:45;101604.91;;;15.20
24586;BMP280;12743;52.262;6.172;2022-07-23T03:36:11;101609.66;;;15.14
24586;BMP280;12743;52.262;6.172;2022-07-23T03:38:40;101619.22;;;15.19
24586;BMP280;12743;52.262;6.172;2022-07-23T03:41:05;101612.97;;;15.11
24586;BMP280;12743;52.262;6.172;2022-07-23T03:43:31;101622.09;;;15.14
24586;BMP280;12743;52.262;6.172;2022-07-23T03:45:57;101623.09;;;15.09
24586;BMP280;12743;52.262;6.172;2022-07-23T03:48:22;101626.38;;;15.18
24586;BMP280;12743;52.262;6.172;2022-07-23T03:50:47;101611.28;;;15.19
24586;BMP280;12743;52.262;6.172;2022-07-23T03:53:13;101603.50;;;15.10
24586;BMP280;12743;52.262;6.172;2022-07-23T03:55:38;101612.63;;;15.01
24586;BMP280;12743;52.262;6.172;2022-07-23T03:58:03;101609.25;;;14.88
24586;BMP280;12743;52.262;6.172;2022-07-23T04:00:30;101613.63;;;14.96
24586;BMP280;12743;52.262;6.172;2022-07-23T04:02:55;101589.84;;;14.84
24586;BMP280;12743;52.262;6.172;2022-07-23T04:05:21;101614.94;;;15.02
24586;BMP280;12743;52.262;6.172;2022-07-23T04:07:50;101623.00;;;15.06
24586;BMP280;12743;52.262;6.172;2022-07-23T04:10:17;101618.47;;;15.06
24586;BMP280;12743;52.262;6.172;2022-07-23T04:12:42;101620.78;;;15.08
24586;BMP280;12743;52.262;6.172;2022-07-23T04:15:08;101624.88;;;15.05
24586;BMP280;12743;52.262;6.172;2022-07-23T04:17:34;101621.00;;;15.03
24586;BMP280;12743;52.262;6.172;2022-07-23T04:20:00;101621.09;;;15.06
24586;BMP280;12743;52.262;6.172;2022-07-23T04:22:32;101620.56;;;15.13
24586;BMP280;12743;52.262;6.172;2022-07-23T04:24:58;101622.56;;;15.04
24586;BMP280;12743;52.262;6.172;2022-07-23T04:27:23;101617.38;;;15.07
24586;BMP280;12743;52.262;6.172;2022-07-23T04:29:49;101606.44;;;15.09
24586;BMP280;12743;52.262;6.172;2022-07-23T04:32:14;101616.34;;;15.12
24586;BMP280;12743;52.262;6.172;2022-07-23T04:34:40;101618.16;;;15.08
24586;BMP280;12743;52.262;6.172;2022-07-23T04:37:06;101601.19;;;14.97
24586;BMP280;12743;52.262;6.172;2022-07-23T04:39:32;101612.97;;;15.11
24586;BMP280;12743;52.262;6.172;2022-07-23T04:41:58;101612.28;;;15.02
24586;BMP280;12743;52.262;6.172;2022-07-23T04:44:23;101607.47;;;15.04
24586;BMP280;12743;52.262;6.172;2022-07-23T04:46:48;101610.75;;;15.01
24586;BMP280;12743;52.262;6.172;2022-07-23T04:49:14;101617.81;;;14.97
24586;BMP280;12743;52.262;6.172;2022-07-23T04:51:40;101614.28;;;15.05
24586;BMP280;12743;52.262;6.172;2022-07-23T04:54:05;101616.34;;;15.12
24586;BMP280;12743;52.262;6.172;2022-07-23T04:56:31;101625.28;;;15.19
24586;BMP280;12743;52.262;6.172;2022-07-23T04:58:56;101619.78;;;15.12
24586;BMP280;12743;52.262;6.172;2022-07-23T05:01:21;101611.28;;;15.19
24586;BMP280;12743;52.262;6.172;2022-07-23T05:03:47;101612.28;;;15.26
24586;BMP280;12743;52.262;6.172;2022-07-23T05:06:14;101620.00;;;15.19
24586;BMP280;12743;52.262;6.172;2022-07-23T05:08:40;101608.34;;;15.08
24586;BMP280;12743;52.262;6.172;2022-07-23T05:11:05;101615.63;;;15.11
24586;BMP280;12743;52.262;6.172;2022-07-23T05:13:30;101618.44;;;15.18
24586;BMP280;12743;52.262;6.172;2022-07-23T05:15:56;101623.56;;;15.11
24586;BMP280;12743;52.262;6.172;2022-07-23T05:18:23;101617.50;;;15.11
24586;BMP280;12743;52.262;6.172;2022-07-23T05:20:48;101639.31;;;15.20
24586;BMP280;12743;52.262;6.172;2022-07-23T05:23:18;101628.19;;;15.14
24586;BMP280;12743;52.262;6.172;2022-07-23T05:25:43;101636.41;;;15.37
24586;BMP280;12743;52.262;6.172;2022-07-23T05:28:10;101644.03;;;15.26
24586;BMP280;12743;52.262;6.172;2022-07-23T05:30:35;101643.25;;;15.26
24586;BMP280;12743;52.262;6.172;2022-07-23T05:33:04;101653.84;;;15.38
24586;BMP280;12743;52.262;6.172;2022-07-23T05:35:29;101657.59;;;15.25
24586;BMP280;12743;52.262;6.172;2022-07-23T05:38:12;101645.91;;;15.26
24586;BMP280;12743;52.262;6.172;2022-07-23T05:40:38;101656.84;;;15.24
24586;BMP280;12743;52.262;6.172;2022-07-23T05:43:04;101670.84;;;15.25
24586;BMP280;12743;52.262;6.172;2022-07-23T05:45:29;101676.88;;;15.50
24586;BMP280;12743;52.262;6.172;2022-07-23T05:47:55;101676.72;;;15.58
24586;BMP280;12743;52.262;6.172;2022-07-23T05:50:27;101670.56;;;15.54
24586;BMP280;12743;52.262;6.172;2022-07-23T05:53:01;101668.19;;;15.65
24586;BMP280;12743;52.262;6.172;2022-07-23T05:55:26;101646.38;;;15.83
24586;BMP280;12743;52.262;6.172;2022-07-23T05:57:55;101672.72;;;16.04
24586;BMP280;12743;52.262;6.172;2022-07-23T06:00:21;101673.84;;;16.19
24586;BMP280;12743;52.262;6.172;2022-07-23T06:02:47;101665.81;;;16.31
24586;BMP280;12743;52.262;6.172;2022-07-23T06:05:14;101672.50;;;16.40
24586;BMP280;12743;52.262;6.172;2022-07-23T06:07:40;101667.63;;;16.42
24586;BMP280;12743;52.262;6.172;2022-07-23T06:10:06;101660.75;;;16.41
24586;BMP280;12743;52.262;6.172;2022-07-23T06:12:32;101681.75;;;16.46
24586;BMP280;12743;52.262;6.172;2022-07-23T06:14:58;101678.13;;;16.39
24586;BMP280;12743;52.262;6.172;2022-07-23T06:17:23;101669.34;;;16.50
24586;BMP280;12743;52.262;6.172;2022-07-23T06:19:49;101669.47;;;16.57
24586;BMP280;12743;52.262;6.172;2022-07-23T06:22:15;101655.38;;;16.69
24586;BMP280;12743;52.262;6.172;2022-07-23T06:24:41;101680.38;;;16.83
24586;BMP280;12743;52.262;6.172;2022-07-23T06:27:07;101676.50;;;16.96
24586;BMP280;12743;52.262;6.172;2022-07-23T06:29:33;101680.59;;;16.94
24586;BMP280;12743;52.262;6.172;2022-07-23T06:31:59;101672.22;;;16.92
24586;BMP280;12743;52.262;6.172;2022-07-23T06:34:24;101682.84;;;16.92
24586;BMP280;12743;52.262;6.172;2022-07-23T06:36:50;101680.84;;;17.05
24586;BMP280;12743;52.262;6.172;2022-07-23T06:39:15;101680.25;;;16.95
24586;BMP280;12743;52.262;6.172;2022-07-23T06:41:44;101685.19;;;17.13
24586;BMP280;12743;52.262;6.172;2022-07-23T06:44:09;101692.25;;;17.24
24586;BMP280;12743;52.262;6.172;2022-07-23T06:46:35;101687.97;;;17.35
24586;BMP280;12743;52.262;6.172;2022-07-23T06:49:00;101680.75;;;17.36
24586;BMP280;12743;52.262;6.172;2022-07-23T06:51:28;101696.53;;;17.67
24586;BMP280;12743;52.262;6.172;2022-07-23T06:53:53;101704.22;;;17.53
24586;BMP280;12743;52.262;6.172;2022-07-23T06:56:19;101698.72;;;17.42
24586;BMP280;12743;52.262;6.172;2022-07-23T06:58:45;101703.25;;;17.61
24586;BMP280;12743;52.262;6.172;2022-07-23T07:01:10;101699.56;;;17.46
24586;BMP280;12743;52.262;6.172;2022-07-23T07:03:36;101694.59;;;17.83
24586;BMP280;12743;52.262;6.172;2022-07-23T07:06:01;101708.97;;;17.59
24586;BMP280;12743;52.262;6.172;2022-07-23T07:08:27;101710.88;;;17.81
24586;BMP280;12743;52.262;6.172;2022-07-23T07:10:52;101708.78;;;17.71
24586;BMP280;12743;52.262;6.172;2022-07-23T07:13:18;101710.88;;;17.81
24586;BMP280;12743;52.262;6.172;2022-07-23T07:15:43;101691.72;;;17.53
24586;BMP280;12743;52.262;6.172;2022-07-23T07:18:09;101710.03;;;17.97
24586;BMP280;12743;52.262;6.172;2022-07-23T07:20:34;101711.78;;;18.08
24586;BMP280;12743;52.262;6.172;2022-07-23T07:22:59;101710.97;;;18.27
24586;BMP280;12743;52.262;6.172;2022-07-23T07:25:25;101715.63;;;18.11
24586;BMP280;12743;52.262;6.172;2022-07-23T07:27:52;101706.47;;;18.31
24586;BMP280;12743;52.262;6.172;2022-07-23T07:30:17;101709.63;;;18.62
24586;BMP280;12743;52.262;6.172;2022-07-23T07:32:43;101717.28;;;18.64
24586;BMP280;12743;52.262;6.172;2022-07-23T07:35:08;101711.34;;;18.74
24586;BMP280;12743;52.262;6.172;2022-07-23T07:37:34;101709.47;;;18.52
24586;BMP280;12743;52.262;6.172;2022-07-23T07:39:59;101718.31;;;18.59
24586;BMP280;12743;52.262;6.172;2022-07-23T07:42:25;101714.19;;;19.14
24586;BMP280;12743;52.262;6.172;2022-07-23T07:44:50;101710.94;;;19.28
24586;BMP280;12743;52.262;6.172;2022-07-23T07:47:16;101702.94;;;18.98
24586;BMP280;12743;52.262;6.172;2022-07-23T07:49:42;101708.34;;;18.53
24586;BMP280;12743;52.262;6.172;2022-07-23T07:52:08;101702.31;;;18.33
24586;BMP280;12743;52.262;6.172;2022-07-23T07:54:33;101703.63;;;18.20
24586;BMP280;12743;52.262;6.172;2022-07-23T07:56:59;101712.97;;;18.33
24586;BMP280;12743;52.262;6.172;2022-07-23T07:59:24;101710.44;;;18.18
24586;BMP280;12743;52.262;6.172;2022-07-23T08:01:50;101728.28;;;18.62
24586;BMP280;12743;52.262;6.172;2022-07-23T08:04:16;101728.28;;;18.62
24586;BMP280;12743;52.262;6.172;2022-07-23T08:06:41;101728.22;;;18.59
24586;BMP280;12743;52.262;6.172;2022-07-23T08:09:06;101731.25;;;18.57
24586;BMP280;12743;52.262;6.172;2022-07-23T08:11:32;101729.03;;;18.63
24586;BMP280;12743;52.262;6.172;2022-07-23T08:13:57;101737.25;;;19.03
24586;BMP280;12743;52.262;6.172;2022-07-23T08:16:23;101731.66;;;18.86
24586;BMP280;12743;52.262;6.172;2022-07-23T08:18:48;101733.88;;;19.36
24586;BMP280;12743;52.262;6.172;2022-07-23T08:21:13;101741.25;;;18.90
24586;BMP280;12743;52.262;6.172;2022-07-23T08:23:39;101742.28;;;18.37
24586;BMP280;12743;52.262;6.172;2022-07-23T08:26:04;101745.06;;;18.93
24586;BMP280;12743;52.262;6.172;2022-07-23T08:28:29;101740.66;;;19.30
24586;BMP280;12743;52.262;6.172;2022-07-23T08:30:58;101750.41;;;19.48
24586;BMP280;12743;52.262;6.172;2022-07-23T08:33:24;101757.44;;;19.97
24586;BMP280;12743;52.262;6.172;2022-07-23T08:35:51;101751.22;;;20.26
24586;BMP280;12743;52.262;6.172;2022-07-23T08:38:20;101755.47;;;19.90
24586;BMP280;12743;52.262;6.172;2022-07-23T08:40:48;101758.88;;;19.87
24586;BMP280;12743;52.262;6.172;2022-07-23T08:43:16;101767.06;;;19.71
24586;BMP280;12743;52.262;6.172;2022-07-23T08:45:43;101622.06;;;18.80
24586;BMP280;12743;52.262;6.172;2022-07-23T08:48:32;101740.34;;;19.68
24586;BMP280;12743;52.262;6.172;2022-07-23T08:51:09;101694.94;;;19.24
24586;BMP280;12743;52.262;6.172;2022-07-23T08:53:42;101764.84;;;19.77
24586;BMP280;12743;52.262;6.172;2022-07-23T08:56:08;101744.09;;;20.37
24586;BMP280;12743;52.262;6.172;2022-07-23T08:59:10;101746.00;;;20.94
24586;BMP280;12743;52.262;6.172;2022-07-23T09:01:47;101745.63;;;20.38
24586;BMP280;12743;52.262;6.172;2022-07-23T09:04:12;101747.41;;;20.74
24586;BMP280;12743;52.262;6.172;2022-07-23T09:06:44;101745.03;;;20.58
24586;BMP280;12743;52.262;6.172;2022-07-23T09:09:21;101739.47;;;19.90
24586;BMP280;12743;52.262;6.172;2022-07-23T09:12:06;101751.69;;;20.35
24586;BMP280;12743;52.262;6.172;2022-07-23T09:14:39;101758.53;;;20.83
24586;BMP280;12743;52.262;6.172;2022-07-23T09:17:12;101738.78;;;20.40
24586;BMP280;12743;52.262;6.172;2022-07-23T09:19:46;101721.34;;;20.57
24586;BMP280;12743;52.262;6.172;2022-07-23T09:25:23;101758.88;;;21.60
24586;BMP280;12743;52.262;6.172;2022-07-23T09:27:57;101758.91;;;21.64
24586;BMP280;12743;52.262;6.172;2022-07-23T09:30:27;101763.75;;;21.30
24586;BMP280;12743;52.262;6.172;2022-07-23T09:33:14;101757.00;;;21.64
24586;BMP280;12743;52.262;6.172;2022-07-23T09:35:51;101766.25;;;21.99
24586;BMP280;12743;52.262;6.172;2022-07-23T09:38:19;101741.78;;;21.93
24586;BMP280;12743;52.262;6.172;2022-07-23T09:40:46;101758.22;;;22.13
24586;BMP280;12743;52.262;6.172;2022-07-23T09:43:25;101751.69;;;21.78
24586;BMP280;12743;52.262;6.172;2022-07-23T09:45:52;101764.56;;;21.41
24586;BMP280;12743;52.262;6.172;2022-07-23T09:48:17;101759.75;;;20.96
24586;BMP280;12743;52.262;6.172;2022-07-23T09:50:44;101753.97;;;21.76
24586;BMP280;12743;52.262;6.172;2022-07-23T09:53:23;101759.81;;;21.07
24586;BMP280;12743;52.262;6.172;2022-07-23T09:55:51;101757.75;;;21.61
24586;BMP280;12743;52.262;6.172;2022-07-23T09:58:21;101756.28;;;21.99
24586;BMP280;12743;52.262;6.172;2022-07-23T10:00:48;101755.50;;;21.95
24586;BMP280;12743;52.262;6.172;2022-07-23T10:03:15;101767.38;;;22.22
24586;BMP280;12743;52.262;6.172;2022-07-23T10:06:01;101765.50;;;22.40
24586;BMP280;12743;52.262;6.172;2022-07-23T10:08:27;101768.06;;;22.93
24586;BMP280;12743;52.262;6.172;2022-07-23T10:11:12;101763.59;;;22.34
24586;BMP280;12743;52.262;6.172;2022-07-23T10:13:51;101761.22;;;22.85
24586;BMP280;12743;52.262;6.172;2022-07-23T10:16:28;101759.72;;;22.45
24586;BMP280;12743;52.262;6.172;2022-07-23T10:18:54;101759.00;;;22.27
24586;BMP280;12743;52.262;6.172;2022-07-23T10:21:25;101763.88;;;22.92
24586;BMP280;12743;52.262;6.172;2022-07-23T10:24:12;101725.03;;;23.28
24586;BMP280;12743;52.262;6.172;2022-07-23T10:35:03;101760.03;;;22.97
24586;BMP280;12743;52.262;6.172;2022-07-23T10:37:39;101754.34;;;22.73
24586;BMP280;12743;52.262;6.172;2022-07-23T10:42:38;101759.44;;;23.40
24586;BMP280;12743;52.262;6.172;2022-07-23T10:45:27;101755.88;;;23.61
24586;BMP280;12743;52.262;6.172;2022-07-23T10:47:55;101751.28;;;23.65
24586;BMP280;12743;52.262;6.172;2022-07-23T10:50:28;101747.06;;;23.60
24586;BMP280;12743;52.262;6.172;2022-07-23T10:58:00;101748.66;;;24.05
24586;BMP280;12743;52.262;6.172;2022-07-23T11:00:28;101757.72;;;24.26
24586;BMP280;12743;52.262;6.172;2022-07-23T11:02:55;101749.44;;;24.02
24586;BMP280;12743;52.262;6.172;2022-07-23T11:05:27;101734.97;;;23.89
24586;BMP280;12743;52.262;6.172;2022-07-23T11:10:37;101744.84;;;23.99
24586;BMP280;12743;52.262;6.172;2022-07-23T11:24:06;101750.97;;;24.44
24586;BMP280;12743;52.262;6.172;2022-07-23T11:32:18;101746.88;;;25.00
24586;BMP280;12743;52.262;6.172;2022-07-23T11:34:49;101755.97;;;25.09
24586;BMP280;12743;52.262;6.172;2022-07-23T11:37:35;101747.09;;;24.82
24586;BMP280;12743;52.262;6.172;2022-07-23T11:40:04;101755.66;;;25.34
24586;BMP280;12743;52.262;6.172;2022-07-23T11:42:31;101754.81;;;24.80
24586;BMP280;12743;52.262;6.172;2022-07-23T11:44:57;101753.00;;;25.30
24586;BMP280;12743;52.262;6.172;2022-07-23T11:47:25;101745.63;;;24.78
24586;BMP280;12743;52.262;6.172;2022-07-23T11:49:59;101740.75;;;24.32
24586;BMP280;12743;52.262;6.172;2022-07-23T11:52:26;101744.44;;;25.09
24586;BMP280;12743;52.262;6.172;2022-07-23T11:54:59;101731.28;;;25.44
24586;BMP280;12743;52.262;6.172;2022-07-23T11:57:27;101733.00;;;25.58
24586;BMP280;12743;52.262;6.172;2022-07-23T11:59:57;101740.84;;;25.19
24586;BMP280;12743;52.262;6.172;2022-07-23T12:02:25;101737.16;;;25.09
24586;BMP280;12743;52.262;6.172;2022-07-23T12:04:52;101738.97;;;25.16
24586;BMP280;12743;52.262;6.172;2022-07-23T12:07:35;101738.44;;;25.01
24586;BMP280;12743;52.262;6.172;2022-07-23T12:10:13;101734.53;;;25.56
24586;BMP280;12743;52.262;6.172;2022-07-23T12:15:11;101734.56;;;25.79
24586;BMP280;12743;52.262;6.172;2022-07-23T12:17:39;101728.44;;;23.94
24586;BMP280;12743;52.262;6.172;2022-07-23T12:20:07;101743.09;;;24.23
24586;BMP280;12743;52.262;6.172;2022-07-23T12:22:38;101732.13;;;25.11
24586;BMP280;12743;52.262;6.172;2022-07-23T12:25:08;101739.72;;;24.90
24586;BMP280;12743;52.262;6.172;2022-07-23T12:27:33;101730.50;;;24.91
24586;BMP280;12743;52.262;6.172;2022-07-23T12:29:59;101731.69;;;24.53
24586;BMP280;12743;52.262;6.172;2022-07-23T12:32:27;101744.34;;;25.69
24586;BMP280;12743;52.262;6.172;2022-07-23T12:35:06;101731.81;;;25.06
24586;BMP280;12743;52.262;6.172;2022-07-23T12:37:37;101746.75;;;25.37
24586;BMP280;12743;52.262;6.172;2022-07-23T12:43:21;101730.06;;;27.09
24586;BMP280;12743;52.262;6.172;2022-07-23T12:48:21;101730.72;;;25.80
24586;BMP280;12743;52.262;6.172;2022-07-23T12:51:04;101730.19;;;25.12
24586;BMP280;12743;52.262;6.172;2022-07-23T12:53:32;101737.09;;;25.39
24586;BMP280;12743;52.262;6.172;2022-07-23T12:56:04;101735.50;;;24.18
24586;BMP280;12743;52.262;6.172;2022-07-23T12:58:55;101731.88;;;24.39
24586;BMP280;12743;52.262;6.172;2022-07-23T13:04:12;101726.75;;;26.07
24586;BMP280;12743;52.262;6.172;2022-07-23T13:06:41;101743.50;;;25.95
24586;BMP280;12743;52.262;6.172;2022-07-23T13:09:17;101738.25;;;26.50
24586;BMP280;12743;52.262;6.172;2022-07-23T13:11:44;101730.78;;;27.61
24586;BMP280;12743;52.262;6.172;2022-07-23T13:14:11;101728.06;;;27.29
24586;BMP280;12743;52.262;6.172;2022-07-23T13:16:37;101736.91;;;26.62
24586;BMP280;12743;52.262;6.172;2022-07-23T13:19:03;101723.41;;;26.23
24586;BMP280;12743;52.262;6.172;2022-07-23T13:21:29;101734.41;;;25.66
24586;BMP280;12743;52.262;6.172;2022-07-23T13:23:56;101739.19;;;26.79
24586;BMP280;12743;52.262;6.172;2022-07-23T13:26:21;101744.66;;;27.60
24586;BMP280;12743;52.262;6.172;2022-07-23T13:28:47;101735.00;;;27.75
24586;BMP280;12743;52.262;6.172;2022-07-23T13:31:13;101727.94;;;27.81
24586;BMP280;12743;52.262;6.172;2022-07-23T13:33:38;101733.69;;;27.83
24586;BMP280;12743;52.262;6.172;2022-07-23T13:36:04;101727.44;;;27.86
24586;BMP280;12743;52.262;6.172;2022-07-23T13:38:30;101724.88;;;27.34
24586;BMP280;12743;52.262;6.172;2022-07-23T13:40:55;101718.72;;;28.23
24586;BMP280;12743;52.262;6.172;2022-07-23T13:43:22;101730.34;;;29.11
24586;BMP280;12743;52.262;6.172;2022-07-23T13:45:49;101723.94;;;28.80
24586;BMP280;12743;52.262;6.172;2022-07-23T13:48:15;101723.38;;;29.10
24586;BMP280;12743;52.262;6.172;2022-07-23T13:50:42;101718.56;;;29.73
24586;BMP280;12743;52.262;6.172;2022-07-23T13:53:28;101716.00;;;29.23
24586;BMP280;12743;52.262;6.172;2022-07-23T13:55:54;101718.50;;;28.30
24586;BMP280;12743;52.262;6.172;2022-07-23T13:58:20;101707.34;;;29.03
24586;BMP280;12743;52.262;6.172;2022-07-23T14:00:49;101719.00;;;29.93
24586;BMP280;12743;52.262;6.172;2022-07-23T14:03:16;101720.03;;;29.65
24586;BMP280;12743;52.262;6.172;2022-07-23T14:05:41;101711.28;;;28.52
24586;BMP280;12743;52.262;6.172;2022-07-23T14:08:07;101708.28;;;27.80
24586;BMP280;12743;52.262;6.172;2022-07-23T14:10:33;101709.78;;;28.89
24586;BMP280;12743;52.262;6.172;2022-07-23T14:12:59;101712.88;;;29.12
24586;BMP280;12743;52.262;6.172;2022-07-23T14:15:26;101711.06;;;29.77
24586;BMP280;12743;52.262;6.172;2022-07-23T14:17:52;101711.19;;;30.26
24586;BMP280;12743;52.262;6.172;2022-07-23T14:20:18;101706.56;;;29.40
24586;BMP280;12743;52.262;6.172;2022-07-23T14:22:44;101715.41;;;29.96
24586;BMP280;12743;52.262;6.172;2022-07-23T14:25:10;101714.28;;;30.77
24586;BMP280;12743;52.262;6.172;2022-07-23T14:27:35;101719.31;;;29.74
24586;BMP280;12743;52.262;6.172;2022-07-23T14:30:03;101697.88;;;28.99
24586;BMP280;12743;52.262;6.172;2022-07-23T14:32:29;101711.59;;;28.29
24586;BMP280;12743;52.262;6.172;2022-07-23T14:34:54;101724.09;;;28.77
24586;BMP280;12743;52.262;6.172;2022-07-23T14:37:20;101725.25;;;28.63
24586;BMP280;12743;52.262;6.172;2022-07-23T14:39:45;101669.47;;;29.93
24586;BMP280;12743;52.262;6.172;2022-07-23T14:42:11;101717.88;;;28.51
24586;BMP280;12743;52.262;6.172;2022-07-23T14:44:37;101714.03;;;29.24
24586;BMP280;12743;52.262;6.172;2022-07-23T14:47:04;101709.81;;;28.76
24586;BMP280;12743;52.262;6.172;2022-07-23T14:49:33;101703.53;;;27.84